createdAt,value
2023-02-23T00:01:58.229Z,100839.09
2023-02-23T00:04:25.522Z,100838.50
2023-02-23T00:06:53.500Z,100836.84
2023-02-23T00:09:24.763Z,100834.25
2023-02-23T00:11:57.474Z,100830.63
2023-02-23T00:14:31.178Z,100831.19
2023-02-23T00:17:00.141Z,100834.91
2023-02-23T00:19:27.657Z,100833.16
2023-02-23T00:21:56.306Z,100820.91
2023-02-23T00:24:27.069Z,100823.56
2023-02-23T00:26:54.460Z,100833.47
2023-02-23T00:29:24.795Z,100833.19
2023-02-23T00:31:52.692Z,100830.66
2023-02-23T00:34:21.586Z,100826.97
2023-02-23T00:36:55.032Z,100824.84
2023-02-23T00:39:26.333Z,100832.84
2023-02-23T00:41:55.684Z,100832.88
2023-02-23T00:44:23.845Z,100834.22
2023-02-23T00:46:52.395Z,100834.06
2023-02-23T00:49:21.885Z,100837.03
2023-02-23T00:51:49.506Z,100835.59
2023-02-23T00:54:17.311Z,100832.09
2023-02-23T00:56:45.937Z,100833.31
2023-02-23T00:59:14.350Z,100837.91
2023-02-23T01:01:42.136Z,100831.66
2023-02-23T01:04:11.347Z,100835.44
2023-02-23T01:06:40.642Z,100837.66
2023-02-23T01:09:14.131Z,100837.16
2023-02-23T01:11:42.153Z,100828.47
2023-02-23T01:14:10.549Z,100839.03
2023-02-23T01:16:38.978Z,100834.31
2023-02-23T01:19:07.028Z,100844.00
2023-02-23T01:21:39.863Z,100846.25
2023-02-23T01:24:10.284Z,100846.59
2023-02-23T01:26:40.533Z,100846.66
2023-02-23T01:29:16.666Z,100827.78
2023-02-23T01:31:47.694Z,100833.75
2023-02-23T01:34:19.717Z,100837.84
2023-02-23T01:36:47.340Z,100834.59
2023-02-23T01:39:17.888Z,100838.88
2023-02-23T01:41:45.630Z,100839.25
2023-02-23T01:44:13.123Z,100836.88
2023-02-23T01:46:43.764Z,100847.19
2023-02-23T01:49:20.273Z,100837.53
2023-02-23T01:51:55.820Z,100836.16
2023-02-23T01:54:26.593Z,100839.94
2023-02-23T01:56:58.474Z,100845.19
2023-02-23T01:59:34.254Z,100838.72
2023-02-23T02:02:05.234Z,100829.34
2023-02-23T02:04:46.697Z,100823.00
2023-02-23T02:07:23.617Z,100830.56
2023-02-23T02:10:22.093Z,100821.88
2023-02-23T02:12:52.838Z,100828.28
2023-02-23T02:15:22.564Z,100824.41
2023-02-23T02:18:23.783Z,100824.19
2023-02-23T02:21:04.716Z,100823.59
2023-02-23T02:23:59.442Z,100823.44
2023-02-23T02:26:45.395Z,100823.72
2023-02-23T02:29:31.308Z,100821.38
2023-02-23T02:32:14.152Z,100828.06
2023-02-23T02:34:42.670Z,100827.81
2023-02-23T02:37:36.337Z,100828.16
2023-02-23T02:40:21.458Z,100836.19
2023-02-23T02:43:00.586Z,100835.69
2023-02-23T02:45:43.705Z,100838.03
2023-02-23T02:48:49.810Z,100832.69
2023-02-23T02:51:26.089Z,100837.56
2023-02-23T02:54:07.528Z,100827.69
2023-02-23T02:56:40.386Z,100838.28
2023-02-23T02:59:33.263Z,100829.28
2023-02-23T03:02:19.657Z,100825.56
2023-02-23T03:05:05.823Z,100829.91
2023-02-23T03:08:11.589Z,100825.91
2023-02-23T03:11:14.232Z,100823.88
2023-02-23T03:14:06.560Z,100828.56
2023-02-23T03:17:07.685Z,100827.41
2023-02-23T03:20:13.561Z,100828.31
2023-02-23T03:23:09.730Z,100820.88
2023-02-23T03:26:13.345Z,100825.00
2023-02-23T03:29:14.469Z,100829.28
2023-02-23T03:32:07.224Z,100827.75
2023-02-23T03:35:18.416Z,100826.06
2023-02-23T03:38:12.969Z,100828.56
2023-02-23T03:41:01.035Z,100831.44
2023-02-23T03:43:51.658Z,100824.44
2023-02-23T03:46:38.679Z,100820.53
2023-02-23T03:49:27.376Z,100826.59
2023-02-23T03:52:18.815Z,100827.41
2023-02-23T03:55:10.273Z,100824.91
2023-02-23T03:57:57.861Z,100818.81
2023-02-23T04:00:48.971Z,100825.81
2023-02-23T04:03:36.920Z,100841.00
2023-02-23T04:06:26.518Z,100832.56
2023-02-23T04:09:14.771Z,100839.34
2023-02-23T04:12:20.755Z,100836.78
2023-02-23T04:15:01.835Z,100839.22
2023-02-23T04:17:29.998Z,100839.06
2023-02-23T04:19:57.488Z,100842.63
2023-02-23T04:22:25.801Z,100843.47
2023-02-23T04:24:53.284Z,100849.97
2023-02-23T04:27:20.574Z,100853.88
2023-02-23T04:29:47.880Z,100852.31
2023-02-23T04:32:18.610Z,100853.09
2023-02-23T04:34:46.140Z,100844.81
2023-02-23T04:37:13.693Z,100851.28
2023-02-23T04:39:42.933Z,100843.81
2023-02-23T04:42:10.626Z,100844.09
2023-02-23T04:44:38.061Z,100852.16
2023-02-23T04:47:05.509Z,100853.44
2023-02-23T04:49:32.929Z,100845.84
2023-02-23T04:52:00.351Z,100848.94
2023-02-23T04:54:27.709Z,100860.56
2023-02-23T04:56:55.140Z,100866.47
2023-02-23T04:59:22.604Z,100864.97
2023-02-23T05:01:49.999Z,100867.13
2023-02-23T05:04:17.428Z,100876.94
2023-02-23T05:06:44.853Z,100884.59
2023-02-23T05:09:12.132Z,100886.03
2023-02-23T05:11:39.352Z,100884.06
2023-02-23T05:14:06.833Z,100893.44
2023-02-23T05:16:34.229Z,100886.44
2023-02-23T05:19:01.771Z,100879.09
2023-02-23T05:21:29.072Z,100887.31
2023-02-23T05:23:57.377Z,100882.06
2023-02-23T05:26:24.833Z,100892.75
2023-02-23T05:28:52.174Z,100888.69
2023-02-23T05:31:20.688Z,100886.19
2023-02-23T05:33:48.316Z,100893.38
2023-02-23T05:36:17.748Z,100890.78
2023-02-23T05:38:46.289Z,100895.50
2023-02-23T05:41:16.409Z,100891.84
2023-02-23T05:43:43.717Z,100900.22
2023-02-23T05:46:16.813Z,100896.47
2023-02-23T05:48:44.249Z,100894.38
2023-02-23T05:51:13.992Z,100905.66
2023-02-23T05:53:41.976Z,100902.28
2023-02-23T05:56:13.574Z,100898.88
2023-02-23T05:58:40.894Z,100901.81
2023-02-23T06:01:08.291Z,100896.84
2023-02-23T06:03:35.870Z,100895.28
2023-02-23T06:06:03.243Z,100901.81
2023-02-23T06:08:30.742Z,100892.38
2023-02-23T06:10:58.130Z,100896.84
2023-02-23T06:13:26.410Z,100894.19
2023-02-23T06:15:53.698Z,100891.81
2023-02-23T06:18:22.326Z,100890.34
2023-02-23T06:20:49.995Z,100887.78
2023-02-23T06:23:18.956Z,100878.88
2023-02-23T06:25:47.045Z,100895.91
2023-02-23T06:28:15.455Z,100890.66
2023-02-23T06:30:43.138Z,100894.06
2023-02-23T06:33:10.449Z,100891.28
2023-02-23T06:35:38.142Z,100894.44
2023-02-23T06:38:06.441Z,100893.34
2023-02-23T06:40:33.859Z,100888.28
2023-02-23T06:43:03.581Z,100894.41
2023-02-23T06:45:31.868Z,100901.97
2023-02-23T06:47:59.987Z,100907.78
2023-02-23T06:50:27.843Z,100905.53
2023-02-23T06:52:57.646Z,100906.75
2023-02-23T06:55:25.285Z,100911.88
2023-02-23T06:57:53.595Z,100907.38
2023-02-23T07:00:21.949Z,100918.47
2023-02-23T07:02:49.432Z,100909.53
2023-02-23T07:05:16.920Z,100913.88
2023-02-23T07:07:45.676Z,100913.81
2023-02-23T07:10:13.275Z,100913.97
2023-02-23T07:12:40.720Z,100906.84
2023-02-23T07:15:08.897Z,100923.72
2023-02-23T07:17:36.864Z,100921.56
2023-02-23T07:20:05.157Z,100923.34
2023-02-23T07:22:34.179Z,100930.03
2023-02-23T07:25:01.808Z,100936.59
2023-02-23T07:27:29.278Z,100934.19
2023-02-23T07:29:56.881Z,100935.78
2023-02-23T07:32:24.564Z,100945.03
2023-02-23T07:34:54.016Z,100947.56
2023-02-23T07:37:22.074Z,100956.75
2023-02-23T07:39:49.647Z,100962.00
2023-02-23T07:42:18.136Z,100965.31
2023-02-23T07:44:45.566Z,100973.81
2023-02-23T07:47:13.106Z,100971.53
2023-02-23T07:49:40.535Z,100969.38
2023-02-23T07:52:08.401Z,100968.34
2023-02-23T07:54:35.664Z,100971.53
2023-02-23T07:57:03.380Z,100964.88
2023-02-23T07:59:32.245Z,100968.59
2023-02-23T08:01:59.620Z,100965.78
2023-02-23T08:04:26.988Z,100955.97
2023-02-23T08:06:55.225Z,100961.34
2023-02-23T08:09:22.792Z,100969.72
2023-02-23T08:11:50.215Z,100960.41
2023-02-23T08:14:17.529Z,100970.00
2023-02-23T08:16:45.752Z,100966.91
2023-02-23T08:19:13.192Z,100970.97
2023-02-23T08:21:40.674Z,100973.13
2023-02-23T08:24:08.108Z,100962.97
2023-02-23T08:26:38.121Z,100964.56
2023-02-23T08:29:05.390Z,100964.72
2023-02-23T08:31:32.786Z,100967.91
2023-02-23T08:34:00.299Z,100967.50
2023-02-23T08:36:27.706Z,100958.59
2023-02-23T08:38:55.367Z,100949.31
2023-02-23T08:41:23.083Z,100954.94
2023-02-23T08:43:50.355Z,100955.63
2023-02-23T08:46:20.388Z,100961.41
2023-02-23T08:48:47.720Z,100956.00
2023-02-23T08:51:15.689Z,100966.22
2023-02-23T08:53:43.097Z,100964.47
2023-02-23T08:56:12.875Z,100973.53
2023-02-23T08:58:40.489Z,100969.28
2023-02-23T09:01:07.904Z,100965.28
2023-02-23T09:03:38.197Z,100969.38
2023-02-23T09:06:09.815Z,100966.63
2023-02-23T09:08:38.304Z,100969.69
2023-02-23T09:11:05.992Z,100969.66
2023-02-23T09:13:33.731Z,100972.69
2023-02-23T09:16:01.285Z,100979.03
2023-02-23T09:18:29.500Z,100976.97
2023-02-23T09:20:57.225Z,100977.69
2023-02-23T09:23:28.293Z,100982.22
2023-02-23T09:25:55.634Z,100980.50
2023-02-23T09:28:23.066Z,100984.75
2023-02-23T09:30:50.324Z,100974.88
2023-02-23T09:33:18.298Z,100984.72
2023-02-23T09:35:45.647Z,100984.91
2023-02-23T09:38:12.973Z,100992.22
2023-02-23T09:40:52.753Z,100996.25
2023-02-23T09:43:24.246Z,101007.06
2023-02-23T09:46:16.254Z,100998.81
2023-02-23T09:48:44.221Z,101006.50
2023-02-23T09:51:17.348Z,101007.91
2023-02-23T09:53:48.949Z,101005.63
2023-02-23T09:56:39.264Z,101008.78
2023-02-23T09:59:15.601Z,101010.50
2023-02-23T10:01:49.230Z,101005.22
2023-02-23T10:04:23.819Z,101013.78
2023-02-23T10:06:59.983Z,101005.19
2023-02-23T10:09:52.712Z,101007.50
2023-02-23T10:12:30.500Z,101005.66
2023-02-23T10:15:06.576Z,101013.31
2023-02-23T10:18:06.311Z,101002.63
2023-02-23T10:20:57.676Z,100996.38
2023-02-23T10:23:34.092Z,101004.78
2023-02-23T10:26:02.928Z,101007.63
2023-02-23T10:28:36.762Z,101002.34
2023-02-23T10:31:17.096Z,100999.75
2023-02-23T10:33:44.797Z,100996.97
2023-02-23T10:36:19.676Z,100991.06
2023-02-23T10:38:47.292Z,100995.22
2023-02-23T10:41:15.145Z,100980.84
2023-02-23T10:43:42.746Z,100983.34
2023-02-23T10:46:23.487Z,100984.50
2023-02-23T10:48:51.375Z,100987.66
2023-02-23T10:51:23.476Z,100990.47
2023-02-23T10:53:53.044Z,100994.59
2023-02-23T10:56:21.414Z,101000.78
2023-02-23T10:59:05.633Z,100998.94
2023-02-23T11:02:00.302Z,101002.34
2023-02-23T11:04:31.271Z,101000.22
2023-02-23T11:07:16.430Z,100992.56
2023-02-23T11:09:48.154Z,100997.81
2023-02-23T11:12:22.831Z,100989.72
2023-02-23T11:14:52.290Z,100991.13
2023-02-23T11:17:24.297Z,100986.03
2023-02-23T11:19:51.879Z,100989.53
2023-02-23T11:22:27.120Z,100988.59
2023-02-23T11:24:55.575Z,100988.50
2023-02-23T11:27:27.021Z,100991.03
2023-02-23T11:29:59.285Z,100985.53
2023-02-23T11:32:30.844Z,100984.34
2023-02-23T11:35:31.230Z,100980.97
2023-02-23T11:37:59.011Z,100980.88
2023-02-23T11:40:26.234Z,100975.84
2023-02-23T11:43:01.240Z,100980.28
2023-02-23T11:45:34.237Z,100983.72
2023-02-23T11:48:02.266Z,100972.00
2023-02-23T11:50:32.590Z,100974.00
2023-02-23T11:53:17.212Z,100963.41
2023-02-23T11:55:55.254Z,100963.25
2023-02-23T11:58:27.177Z,100963.69
2023-02-23T12:01:03.565Z,100966.44
2023-02-23T12:03:33.327Z,100963.66
2023-02-23T12:06:02.377Z,100968.75
2023-02-23T12:08:35.982Z,100950.53
2023-02-23T12:11:07.298Z,100948.88
2023-02-23T12:13:50.848Z,100954.56
2023-02-23T12:16:24.781Z,100952.34
2023-02-23T12:19:04.990Z,100958.16
2023-02-23T12:21:34.827Z,100957.72
2023-02-23T12:24:08.157Z,100953.66
2023-02-23T12:26:49.334Z,100951.44
2023-02-23T12:29:33.643Z,100959.69
2023-02-23T12:32:03.339Z,100950.00
2023-02-23T12:34:36.468Z,100957.84
2023-02-23T12:37:29.294Z,100958.16
2023-02-23T12:40:02.308Z,100958.38
2023-02-23T12:42:45.742Z,100949.22
2023-02-23T12:45:43.358Z,100956.78
2023-02-23T12:48:29.220Z,100949.75
2023-02-23T12:51:07.210Z,100954.28
2023-02-23T12:53:34.582Z,100953.97
2023-02-23T12:56:27.467Z,100952.59
2023-02-23T12:59:14.439Z,100950.41
2023-02-23T13:02:00.809Z,100949.28
2023-02-23T13:05:24.549Z,100958.75
2023-02-23T13:08:11.584Z,100952.25
2023-02-23T13:10:55.639Z,100940.59
2023-02-23T13:13:31.587Z,100943.69
2023-02-23T13:16:34.916Z,100944.56
2023-02-23T13:19:25.278Z,100941.31
2023-02-23T13:22:21.934Z,100944.94
2023-02-23T13:24:49.867Z,100946.19
2023-02-23T13:27:34.047Z,100937.41
2023-02-23T13:30:02.326Z,100930.94
2023-02-23T13:32:32.612Z,100927.47
2023-02-23T13:35:14.524Z,100932.53
2023-02-23T13:37:51.393Z,100939.03
2023-02-23T13:40:31.143Z,100932.56
2023-02-23T13:43:23.686Z,100922.69
2023-02-23T13:46:14.633Z,100915.63
2023-02-23T13:49:00.531Z,100915.63
2023-02-23T13:51:43.799Z,100913.81
2023-02-23T13:54:15.092Z,100917.59
2023-02-23T13:56:47.068Z,100923.47
2023-02-23T13:59:29.692Z,100915.81
2023-02-23T14:01:58.011Z,100924.47
2023-02-23T14:04:28.214Z,100919.09
2023-02-23T14:07:01.875Z,100912.56
2023-02-23T14:09:36.788Z,100910.06
2023-02-23T14:12:38.970Z,100916.91
2023-02-23T14:15:25.439Z,100913.03
2023-02-23T14:18:15.470Z,100919.53
2023-02-23T14:21:15.554Z,100913.66
2023-02-23T14:24:03.150Z,100907.38
2023-02-23T14:26:30.376Z,100910.41
2023-02-23T14:29:20.126Z,100908.88
2023-02-23T14:32:12.605Z,100916.91
2023-02-23T14:35:00.693Z,100924.03
2023-02-23T14:37:40.956Z,100918.59
2023-02-23T14:40:15.740Z,100915.25
2023-02-23T14:42:47.531Z,100912.56
2023-02-23T14:45:29.240Z,100911.78
2023-02-23T14:48:00.012Z,100901.53
2023-02-23T14:50:30.787Z,100904.09
2023-02-23T14:52:58.544Z,100907.47
2023-02-23T14:55:33.055Z,100911.03
2023-02-23T14:58:02.133Z,100915.19
2023-02-23T15:00:33.106Z,100906.25
2023-02-23T15:03:03.727Z,100912.22
2023-02-23T15:05:37.355Z,100910.19
2023-02-23T15:08:06.836Z,100909.22
2023-02-23T15:10:39.177Z,100923.13
2023-02-23T15:13:11.849Z,100924.59
2023-02-23T15:15:45.394Z,100924.47
2023-02-23T15:18:32.001Z,100921.13
2023-02-23T15:20:59.513Z,100928.47
2023-02-23T15:23:27.356Z,100932.75
2023-02-23T15:25:54.965Z,100925.50
2023-02-23T15:28:28.112Z,100926.22
2023-02-23T15:31:02.049Z,100926.34
2023-02-23T15:33:30.380Z,100925.94
2023-02-23T15:36:06.905Z,100919.19
2023-02-23T15:38:43.876Z,100915.41
2023-02-23T15:41:39.623Z,100916.72
2023-02-23T15:44:13.415Z,100927.56
2023-02-23T15:46:42.109Z,100923.13
2023-02-23T15:49:14.439Z,100924.84
2023-02-23T15:51:50.288Z,100921.50
2023-02-23T15:54:24.812Z,100928.53
2023-02-23T15:56:57.238Z,100921.34
2023-02-23T15:59:38.035Z,100930.09
2023-02-23T16:02:16.681Z,100930.50
2023-02-23T16:04:49.018Z,100925.28
2023-02-23T16:07:21.986Z,100932.03
2023-02-23T16:09:55.791Z,100932.31
2023-02-23T16:12:32.646Z,100932.25
2023-02-23T16:15:02.313Z,100940.31
2023-02-23T16:17:53.701Z,100926.09
2023-02-23T16:20:29.322Z,100935.09
2023-02-23T16:22:58.127Z,100936.84
2023-02-23T16:25:27.255Z,100936.53
2023-02-23T16:28:01.335Z,100936.03
2023-02-23T16:30:32.145Z,100924.09
2023-02-23T16:33:24.253Z,100928.56
2023-02-23T16:36:10.593Z,100926.03
2023-02-23T16:38:41.161Z,100933.84
2023-02-23T16:41:22.381Z,100937.91
2023-02-23T16:43:52.003Z,100934.91
2023-02-23T16:46:21.134Z,100931.94
2023-02-23T16:48:48.940Z,100937.06
2023-02-23T16:51:19.064Z,100935.81
2023-02-23T16:53:46.632Z,100929.31
2023-02-23T16:56:20.224Z,100931.31
2023-02-23T16:58:57.173Z,100932.50
2023-02-23T17:01:24.802Z,100937.25
2023-02-23T17:03:54.085Z,100929.25
2023-02-23T17:06:22.751Z,100932.44
2023-02-23T17:08:58.093Z,100927.31
2023-02-23T17:11:26.640Z,100932.00
2023-02-23T17:13:54.078Z,100930.56
2023-02-23T17:16:21.825Z,100942.75
2023-02-23T17:18:49.339Z,100941.50
2023-02-23T17:21:23.003Z,100937.41
2023-02-23T17:23:51.646Z,100931.69
2023-02-23T17:26:23.821Z,100927.72
2023-02-23T17:28:51.860Z,100941.41
2023-02-23T17:31:20.164Z,100941.13
2023-02-23T17:33:48.300Z,100944.59
2023-02-23T17:36:17.632Z,100941.13
2023-02-23T17:38:45.153Z,100942.03
2023-02-23T17:41:16.570Z,100947.75
2023-02-23T17:43:44.096Z,100941.50
2023-02-23T17:46:12.974Z,100939.56
2023-02-23T17:48:44.486Z,100945.91
2023-02-23T17:51:13.197Z,100946.44
2023-02-23T17:53:40.823Z,100949.38
2023-02-23T17:56:09.143Z,100953.25
2023-02-23T17:58:37.459Z,100957.53
2023-02-23T18:01:07.078Z,100953.78
2023-02-23T18:03:36.385Z,100949.69
2023-02-23T18:06:09.380Z,100952.66
2023-02-23T18:08:37.907Z,100954.28
2023-02-23T18:11:05.680Z,100947.53
2023-02-23T18:13:34.313Z,100951.31
2023-02-23T18:16:06.248Z,100953.06
2023-02-23T18:18:34.161Z,100947.63
2023-02-23T18:21:02.814Z,100950.78
2023-02-23T18:23:37.009Z,100956.72
2023-02-23T18:26:07.288Z,100967.03
2023-02-23T18:28:35.307Z,100949.69
2023-02-23T18:31:02.959Z,100966.53
2023-02-23T18:33:31.536Z,100969.59
2023-02-23T18:35:59.073Z,100968.03
2023-02-23T18:38:26.596Z,100978.34
2023-02-23T18:40:53.904Z,100970.00
2023-02-23T18:43:21.366Z,100972.44
2023-02-23T18:45:48.825Z,100975.69
2023-02-23T18:48:16.394Z,100978.44
2023-02-23T18:50:44.035Z,100984.06
2023-02-23T18:53:11.526Z,100983.34
2023-02-23T18:55:38.789Z,100985.78
2023-02-23T18:58:07.824Z,100986.28
2023-02-23T19:00:40.202Z,100981.06
2023-02-23T19:03:07.739Z,100983.97
2023-02-23T19:05:37.681Z,100978.47
2023-02-23T19:08:09.558Z,100978.69
2023-02-23T19:10:37.076Z,100970.22
2023-02-23T19:13:08.960Z,100969.59
2023-02-23T19:15:36.380Z,100973.38
2023-02-23T19:18:04.195Z,100968.88
2023-02-23T19:20:35.912Z,100967.47
2023-02-23T19:23:03.471Z,100970.41
2023-02-23T19:25:31.925Z,100954.53
2023-02-23T19:28:00.049Z,100949.28
2023-02-23T19:30:27.501Z,100944.41
2023-02-23T19:32:54.874Z,100946.00
2023-02-23T19:35:22.419Z,100939.69
2023-02-23T19:37:51.823Z,100932.47
2023-02-23T19:40:22.868Z,100929.69
2023-02-23T19:42:51.215Z,100929.09
2023-02-23T19:45:18.742Z,100926.63
2023-02-23T19:47:46.352Z,100927.03
2023-02-23T19:50:16.937Z,100928.97
2023-02-23T19:52:45.295Z,100929.50
2023-02-23T19:55:13.416Z,100924.19
2023-02-23T19:57:41.213Z,100930.94
2023-02-23T20:00:11.629Z,100934.38
2023-02-23T20:02:42.778Z,100936.34
2023-02-23T20:05:15.140Z,100934.38
2023-02-23T20:07:43.354Z,100941.94
2023-02-23T20:10:16.196Z,100939.72
2023-02-23T20:12:44.604Z,100940.59
2023-02-23T20:15:14.859Z,100945.00
2023-02-23T20:17:42.592Z,100944.19
2023-02-23T20:20:11.336Z,100954.38
2023-02-23T20:22:41.407Z,100947.59
2023-02-23T20:25:12.643Z,100948.03
2023-02-23T20:27:39.860Z,100944.50
2023-02-23T20:30:07.811Z,100950.91
2023-02-23T20:32:35.431Z,100957.03
2023-02-23T20:35:03.071Z,100961.81
2023-02-23T20:37:31.388Z,100951.53
2023-02-23T20:39:58.922Z,100953.31
2023-02-23T20:42:28.393Z,100949.50
2023-02-23T20:44:56.054Z,100944.81
2023-02-23T20:47:24.213Z,100949.88
2023-02-23T20:49:51.563Z,100953.38
2023-02-23T20:52:18.973Z,100963.56
2023-02-23T20:54:46.312Z,100964.97
2023-02-23T20:57:13.632Z,100963.91
2023-02-23T20:59:43.301Z,100964.31
2023-02-23T21:02:13.973Z,100967.16
2023-02-23T21:04:44.275Z,100967.47
2023-02-23T21:07:13.538Z,100966.03
2023-02-23T21:09:41.030Z,100962.25
2023-02-23T21:12:12.671Z,100959.22
2023-02-23T21:14:40.132Z,100960.72
2023-02-23T21:20:14.569Z,100961.31
2023-02-23T21:22:42.042Z,100970.19
2023-02-23T21:25:10.953Z,100972.41
2023-02-23T21:27:38.669Z,100969.91
2023-02-23T21:30:08.205Z,100968.50
2023-02-23T21:32:41.321Z,100973.06
2023-02-23T21:35:10.944Z,100966.22
2023-02-23T21:37:39.388Z,100968.88
2023-02-23T21:40:12.665Z,100982.09
2023-02-23T21:42:41.714Z,100970.66
2023-02-23T21:45:12.503Z,100975.53
2023-02-23T21:47:41.748Z,100991.09
2023-02-23T21:50:13.581Z,100985.78
2023-02-23T21:52:43.690Z,100982.16
2023-02-23T21:55:21.248Z,100983.00
2023-02-23T21:57:49.339Z,100976.59
2023-02-23T22:00:16.810Z,100976.06
2023-02-23T22:02:46.736Z,100973.19
2023-02-23T22:05:15.941Z,100980.09
2023-02-23T22:07:52.068Z,100976.13
2023-02-23T22:10:21.834Z,100982.47
2023-02-23T22:12:56.702Z,100980.53
2023-02-23T22:15:29.886Z,100982.69
2023-02-23T22:17:57.336Z,100973.59
2023-02-23T22:20:26.202Z,100986.56
2023-02-23T22:22:53.684Z,100974.53
2023-02-23T22:25:21.263Z,100973.09
2023-02-23T22:27:48.721Z,100974.88
2023-02-23T22:30:16.332Z,100966.34
2023-02-23T22:32:44.453Z,100959.44
2023-02-23T22:35:12.107Z,100971.72
2023-02-23T22:37:40.127Z,100967.72
2023-02-23T22:40:12.959Z,100967.41
2023-02-23T22:42:43.277Z,100970.94
2023-02-23T22:45:11.514Z,100963.97
2023-02-23T22:47:39.157Z,100958.47
2023-02-23T22:50:07.110Z,100966.00
2023-02-23T22:52:34.788Z,100969.16
2023-02-23T22:55:03.959Z,100960.69
2023-02-23T22:57:31.321Z,100954.44
2023-02-23T23:00:07.356Z,100953.50
2023-02-23T23:02:36.387Z,100954.63
2023-02-23T23:05:04.069Z,100949.59
2023-02-23T23:07:31.817Z,100950.53
2023-02-23T23:10:03.758Z,100935.13
2023-02-23T23:12:34.401Z,100940.78
2023-02-23T23:15:05.104Z,100943.84
2023-02-23T23:17:32.918Z,100937.81
2023-02-23T23:20:00.551Z,100936.38
2023-02-23T23:22:28.142Z,100931.69
2023-02-23T23:24:56.981Z,100931.19
2023-02-23T23:27:24.940Z,100927.06
2023-02-23T23:29:52.443Z,100927.69
2023-02-23T23:32:27.485Z,100930.34
2023-02-23T23:34:57.771Z,100928.63
2023-02-23T23:37:29.169Z,100929.41
2023-02-23T23:40:00.150Z,100924.31
2023-02-23T23:42:27.696Z,100927.06
2023-02-23T23:44:56.943Z,100935.75
2023-02-23T23:47:24.719Z,100930.41
2023-02-23T23:49:53.785Z,100928.88
2023-02-23T23:52:21.213Z,100915.75
2023-02-23T23:54:49.000Z,100921.25
2023-02-23T23:57:17.397Z,100914.97
2023-02-23T23:59:46.355Z,100904.31
